createdAt,value
2022-10-21T00:00:02.159Z,73.60
2022-10-21T00:01:02.323Z,73.10
2022-10-21T00:02:02.491Z,73.10
2022-10-21T00:03:02.662Z,72.38
2022-10-21T00:04:02.822Z,72.58
2022-10-21T00:05:02.984Z,72.38
2022-10-21T00:06:03.144Z,72.89
2022-10-21T00:07:03.304Z,72.99
2022-10-21T00:08:03.479Z,72.89
2022-10-21T00:09:03.742Z,72.69
2022-10-21T00:10:03.794Z,73.30
2022-10-21T00:11:03.961Z,73.10
2022-10-21T00:12:04.132Z,72.75
2022-10-21T00:13:04.295Z,72.45
2022-10-21T00:14:04.457Z,72.34
2022-10-21T00:15:04.624Z,71.73
2022-10-21T00:16:04.784Z,71.56
2022-10-21T00:17:04.962Z,72.28
2022-10-21T00:18:05.114Z,72.28
2022-10-21T00:19:05.283Z,72.58
2022-10-21T00:20:05.442Z,72.58
2022-10-21T00:21:05.637Z,72.65
2022-10-21T00:22:05.804Z,72.04
2022-10-21T00:23:05.979Z,71.84
2022-10-21T00:24:06.124Z,72.04
2022-10-21T00:25:06.323Z,72.14
2022-10-21T00:26:06.482Z,72.04
2022-10-21T00:27:06.663Z,72.14
2022-10-21T00:28:06.823Z,71.94
2022-10-21T00:29:06.997Z,72.45
2022-10-21T00:30:07.163Z,71.94
2022-10-21T00:31:07.324Z,72.45
2022-10-21T00:32:07.503Z,72.14
2022-10-21T00:33:07.679Z,71.33
2022-10-21T00:34:07.843Z,72.14
2022-10-21T00:35:08.004Z,72.04
2022-10-21T00:36:08.182Z,72.04
2022-10-21T00:37:08.352Z,71.94
2022-10-21T00:38:08.505Z,72.31
2022-10-21T00:39:08.705Z,71.40
2022-10-21T00:40:08.862Z,72.04
2022-10-21T00:41:09.034Z,72.45
2022-10-21T00:42:09.204Z,72.55
2022-10-21T00:43:09.374Z,72.45
2022-10-21T00:44:09.534Z,72.55
2022-10-21T00:45:09.703Z,72.65
2022-10-21T00:46:09.861Z,72.55
2022-10-21T00:47:10.073Z,72.65
2022-10-21T00:48:10.241Z,72.96
2022-10-21T00:49:10.433Z,73.06
2022-10-21T00:50:10.575Z,73.36
2022-10-21T00:51:10.740Z,73.40
2022-10-21T00:52:10.913Z,73.71
2022-10-21T00:53:11.073Z,74.21
2022-10-21T00:54:11.232Z,73.60
2022-10-21T00:55:11.394Z,73.80
2022-10-21T00:56:15.652Z,73.60
2022-10-21T00:57:12.762Z,73.80
2022-10-21T00:58:11.902Z,73.91
2022-10-21T00:59:12.075Z,73.47
2022-10-21T01:00:12.242Z,73.87
2022-10-21T01:01:13.659Z,73.47
2022-10-21T01:02:12.598Z,73.47
2022-10-21T01:03:12.763Z,73.57
2022-10-21T01:04:12.932Z,73.57
2022-10-21T01:05:13.093Z,73.36
2022-10-21T01:06:13.252Z,73.57
2022-10-21T01:07:13.452Z,74.18
2022-10-21T01:08:13.580Z,73.87
2022-10-21T01:09:13.808Z,73.26
2022-10-21T01:10:13.912Z,72.78
2022-10-21T01:11:14.082Z,73.19
2022-10-21T01:12:14.252Z,73.91
2022-10-21T01:13:14.420Z,73.60
2022-10-21T01:14:14.584Z,73.60
2022-10-21T01:15:14.753Z,73.71
2022-10-21T01:16:14.939Z,73.80
2022-10-21T01:17:26.587Z,73.91
2022-10-21T01:18:16.252Z,74.21
2022-10-21T01:19:15.432Z,73.91
2022-10-21T01:20:15.597Z,73.60
2022-10-21T01:21:15.784Z,73.30
2022-10-21T01:22:15.953Z,73.30
2022-10-21T01:23:16.122Z,73.19
2022-10-21T01:24:16.276Z,73.10
2022-10-21T01:25:16.472Z,72.78
2022-10-21T01:26:16.640Z,73.30
2022-10-21T01:27:16.822Z,72.89
2022-10-21T01:28:16.981Z,72.89
2022-10-21T01:29:17.154Z,73.40
2022-10-21T01:30:17.311Z,73.50
2022-10-21T01:31:17.490Z,73.60
2022-10-21T01:32:17.651Z,73.67
2022-10-21T01:33:17.818Z,73.30
2022-10-21T01:34:17.972Z,73.50
2022-10-21T01:35:18.151Z,73.71
2022-10-21T01:36:18.322Z,74.21
2022-10-21T01:37:18.503Z,73.40
2022-10-21T01:38:18.666Z,73.80
2022-10-21T01:39:18.833Z,73.91
2022-10-21T01:40:18.989Z,73.71
2022-10-21T01:41:19.172Z,73.50
2022-10-21T01:42:19.333Z,73.71
2022-10-21T01:43:19.501Z,74.21
2022-10-21T01:44:19.661Z,73.50
2022-10-21T01:45:19.824Z,74.01
2022-10-21T01:46:19.992Z,74.41
2022-10-21T01:47:20.170Z,74.32
2022-10-21T01:48:20.323Z,74.41
2022-10-21T01:49:20.521Z,74.45
2022-10-21T01:50:20.692Z,74.52
2022-10-21T01:51:20.912Z,74.55
2022-10-21T01:52:21.023Z,74.76
2022-10-21T01:53:21.200Z,74.55
2022-10-21T01:54:21.351Z,74.25
2022-10-21T01:55:21.555Z,74.96
2022-10-21T01:56:21.731Z,74.76
2022-10-21T01:57:21.896Z,74.76
2022-10-21T01:58:22.062Z,74.72
2022-10-21T01:59:22.221Z,74.41
2022-10-21T02:00:22.498Z,73.91
2022-10-21T02:01:22.684Z,74.52
2022-10-21T02:02:22.761Z,74.62
2022-10-21T02:03:22.919Z,74.11
2022-10-21T02:04:23.080Z,74.11
2022-10-21T02:05:23.231Z,74.32
2022-10-21T02:06:23.411Z,74.41
2022-10-21T02:07:23.590Z,74.62
2022-10-21T02:08:23.760Z,74.62
2022-10-21T02:09:23.965Z,74.32
2022-10-21T02:10:24.090Z,74.01
2022-10-21T02:11:24.301Z,74.11
2022-10-21T02:12:24.461Z,74.72
2022-10-21T02:13:24.620Z,74.41
2022-10-21T02:14:24.788Z,74.62
2022-10-21T02:15:24.941Z,74.72
2022-10-21T02:16:25.130Z,74.21
2022-10-21T02:17:25.284Z,74.41
2022-10-21T02:18:25.501Z,74.52
2022-10-21T02:19:25.659Z,74.32
2022-10-21T02:20:25.800Z,74.32
2022-10-21T02:21:26.016Z,74.18
2022-10-21T02:22:26.172Z,73.57
2022-10-21T02:23:26.330Z,73.50
2022-10-21T02:24:26.491Z,73.87
2022-10-21T02:25:26.651Z,73.97
2022-10-21T02:26:26.830Z,74.08
2022-10-21T02:27:26.999Z,73.87
2022-10-21T02:28:27.194Z,73.97
2022-10-21T02:29:27.340Z,73.57
2022-10-21T02:30:27.504Z,73.77
2022-10-21T02:31:27.679Z,74.08
2022-10-21T02:32:27.841Z,73.26
2022-10-21T02:33:28.000Z,73.26
2022-10-21T02:34:28.174Z,73.47
2022-10-21T02:35:28.320Z,73.36
2022-10-21T02:36:28.499Z,73.36
2022-10-21T02:37:28.702Z,73.47
2022-10-21T02:38:28.830Z,73.16
2022-10-21T02:39:28.986Z,73.16
2022-10-21T02:40:29.148Z,73.36
2022-10-21T02:41:29.322Z,73.67
2022-10-21T02:42:29.480Z,73.57
2022-10-21T02:43:29.640Z,73.77
2022-10-21T02:44:29.841Z,73.36
2022-10-21T02:45:29.990Z,73.26
2022-10-21T02:46:30.169Z,73.47
2022-10-21T02:47:30.329Z,73.47
2022-10-21T02:48:30.498Z,73.43
2022-10-21T02:49:30.649Z,73.43
2022-10-21T02:50:30.809Z,73.23
2022-10-21T02:51:30.987Z,73.23
2022-10-21T02:52:31.162Z,72.96
2022-10-21T02:53:31.303Z,73.02
2022-10-21T02:54:31.498Z,73.16
2022-10-21T02:55:31.680Z,73.23
2022-10-21T02:56:31.869Z,73.23
2022-10-21T02:57:32.009Z,73.43
2022-10-21T02:58:32.209Z,73.23
2022-10-21T02:59:32.361Z,72.86
2022-10-21T03:00:33.082Z,73.13
2022-10-21T03:01:32.721Z,73.23
2022-10-21T03:02:32.881Z,73.13
2022-10-21T03:03:33.041Z,73.13
2022-10-21T03:04:33.221Z,73.13
2022-10-21T03:05:33.385Z,72.72
2022-10-21T03:06:33.589Z,73.13
2022-10-21T03:07:33.750Z,73.02
2022-10-21T03:08:33.948Z,72.72
2022-10-21T03:09:34.068Z,73.33
2022-10-21T03:10:34.228Z,73.23
2022-10-21T03:11:34.399Z,73.33
2022-10-21T03:12:34.561Z,73.02
2022-10-21T03:13:34.721Z,72.31
2022-10-21T03:14:34.878Z,72.52
2022-10-21T03:15:35.039Z,72.52
2022-10-21T03:16:35.218Z,72.72
2022-10-21T03:17:35.369Z,72.52
2022-10-21T03:18:35.536Z,72.62
2022-10-21T03:19:35.688Z,72.52
2022-10-21T03:20:35.887Z,72.82
2022-10-21T03:21:36.059Z,72.72
2022-10-21T03:22:36.220Z,72.72
2022-10-21T03:23:36.381Z,72.52
2022-10-21T03:24:36.539Z,72.41
2022-10-21T03:25:36.699Z,72.21
2022-10-21T03:26:36.877Z,72.52
2022-10-21T03:27:37.031Z,72.62
2022-10-21T03:28:37.191Z,72.52
2022-10-21T03:29:37.367Z,72.62
2022-10-21T03:30:37.529Z,72.52
2022-10-21T03:31:37.708Z,72.41
2022-10-21T03:32:38.239Z,72.52
2022-10-21T03:33:38.039Z,72.31
2022-10-21T03:34:38.206Z,72.41
2022-10-21T03:35:38.368Z,72.72
2022-10-21T03:36:38.548Z,72.41
2022-10-21T03:37:38.708Z,72.21
2022-10-21T03:38:38.895Z,72.41
2022-10-21T03:39:39.050Z,72.31
2022-10-21T03:40:39.248Z,72.52
2022-10-21T03:41:39.433Z,72.31
2022-10-21T03:42:40.047Z,72.52
2022-10-21T03:43:39.758Z,72.52
2022-10-21T03:44:39.929Z,72.82
2022-10-21T03:45:40.095Z,72.72
2022-10-21T03:46:40.306Z,72.82
2022-10-21T03:47:40.466Z,73.02
2022-10-21T03:48:40.629Z,73.13
2022-10-21T03:49:40.801Z,72.62
2022-10-21T03:50:40.988Z,72.62
2022-10-21T03:51:41.138Z,72.82
2022-10-21T03:52:41.455Z,72.92
2022-10-21T03:53:43.760Z,72.52
2022-10-21T03:54:41.678Z,72.82
2022-10-21T03:55:41.847Z,73.02
2022-10-21T03:56:42.016Z,73.23
2022-10-21T03:57:42.624Z,73.23
2022-10-21T03:58:42.379Z,72.92
2022-10-21T03:59:42.538Z,73.02
2022-10-21T04:00:42.720Z,73.02
2022-10-21T04:01:42.918Z,73.13
2022-10-21T04:02:43.070Z,73.13
2022-10-21T04:03:43.227Z,73.13
2022-10-21T04:04:43.405Z,72.72
2022-10-21T04:05:43.579Z,72.92
2022-10-21T04:06:43.738Z,72.92
2022-10-21T04:07:43.905Z,72.92
2022-10-21T04:08:44.147Z,72.92
2022-10-21T04:09:44.244Z,73.13
2022-10-21T04:10:44.492Z,73.23
2022-10-21T04:11:44.580Z,73.23
2022-10-21T04:12:44.742Z,73.36
2022-10-21T04:13:44.899Z,73.26
2022-10-21T04:14:45.068Z,73.26
2022-10-21T04:15:45.239Z,73.26
2022-10-21T04:16:47.933Z,73.16
2022-10-21T04:17:45.587Z,73.16
2022-10-21T04:18:45.749Z,73.26
2022-10-21T04:19:45.929Z,73.47
2022-10-21T04:20:46.085Z,73.26
2022-10-21T04:21:46.238Z,73.26
2022-10-21T04:22:46.437Z,73.26
2022-10-21T04:23:46.610Z,73.47
2022-10-21T04:24:46.797Z,73.26
2022-10-21T04:25:46.957Z,73.26
2022-10-21T04:26:47.117Z,73.47
2022-10-21T04:27:47.286Z,73.36
2022-10-21T04:28:47.448Z,73.57
2022-10-21T04:29:47.637Z,73.06
2022-10-21T04:30:47.797Z,73.36
2022-10-21T04:31:47.968Z,73.47
2022-10-21T04:32:48.137Z,73.47
2022-10-21T04:33:48.296Z,73.47
2022-10-21T04:34:48.476Z,73.57
2022-10-21T04:35:48.627Z,73.36
2022-10-21T04:36:48.837Z,73.36
2022-10-21T04:37:48.976Z,73.36
2022-10-21T04:38:49.177Z,73.47
2022-10-21T04:39:49.346Z,73.36
2022-10-21T04:40:49.506Z,73.36
2022-10-21T04:41:49.666Z,73.87
2022-10-21T04:42:49.857Z,73.97
2022-10-21T04:43:50.021Z,73.87
2022-10-21T04:44:50.456Z,73.47
2022-10-21T04:45:50.346Z,73.87
2022-10-21T04:46:50.526Z,73.77
2022-10-21T04:47:50.696Z,73.47
2022-10-21T04:48:50.858Z,73.36
2022-10-21T04:49:51.028Z,73.16
2022-10-21T04:50:51.186Z,73.26
2022-10-21T04:51:51.346Z,73.47
2022-10-21T04:52:51.506Z,73.47
2022-10-21T04:53:51.667Z,73.26
2022-10-21T04:54:51.845Z,73.47
2022-10-21T04:55:52.005Z,73.47
2022-10-21T04:56:52.168Z,73.47
2022-10-21T04:57:52.336Z,73.47
2022-10-21T04:58:52.496Z,73.67
2022-10-21T04:59:52.686Z,73.47
2022-10-21T05:00:52.925Z,73.57
2022-10-21T05:01:53.058Z,73.57
2022-10-21T05:02:53.196Z,73.67
2022-10-21T05:03:53.356Z,73.36
2022-10-21T05:04:53.548Z,73.26
2022-10-21T05:05:53.706Z,73.36
2022-10-21T05:06:53.867Z,73.26
2022-10-21T05:07:54.026Z,73.67
2022-10-21T05:08:54.248Z,73.67
2022-10-21T05:09:54.364Z,73.67
2022-10-21T05:10:54.534Z,73.47
2022-10-21T05:11:54.705Z,73.57
2022-10-21T05:12:54.874Z,73.77
2022-10-21T05:13:55.051Z,73.57
2022-10-21T05:14:55.217Z,73.67
2022-10-21T05:15:55.379Z,73.57
2022-10-21T05:16:55.536Z,73.77
2022-10-21T05:17:55.700Z,73.67
2022-10-21T05:18:55.865Z,73.57
2022-10-21T05:19:56.048Z,73.57
2022-10-21T05:20:56.215Z,73.67
2022-10-21T05:21:56.376Z,73.67
2022-10-21T05:22:56.653Z,73.67
2022-10-21T05:23:56.750Z,73.67
2022-10-21T05:24:56.915Z,73.57
2022-10-21T05:25:57.066Z,73.67
2022-10-21T05:26:57.246Z,73.57
2022-10-21T05:27:57.427Z,73.74
2022-10-21T05:28:57.625Z,73.63
2022-10-21T05:29:57.779Z,73.63
2022-10-21T05:30:57.996Z,73.54
2022-10-21T05:31:58.119Z,73.43
2022-10-21T05:32:58.295Z,73.43
2022-10-21T05:33:58.486Z,73.13
2022-10-21T05:34:58.664Z,73.13
2022-10-21T05:35:58.846Z,73.13
2022-10-21T05:36:59.031Z,73.02
2022-10-21T05:37:59.183Z,73.33
2022-10-21T05:38:59.375Z,73.33
2022-10-21T05:39:59.515Z,73.43
2022-10-21T05:40:59.695Z,73.43
2022-10-21T05:41:59.914Z,73.43
2022-10-21T05:43:00.067Z,73.23
2022-10-21T05:44:00.266Z,73.23
2022-10-21T05:45:00.417Z,73.02
2022-10-21T05:46:00.602Z,73.13
2022-10-21T05:47:00.793Z,73.13
2022-10-21T05:48:00.996Z,73.13
2022-10-21T05:49:01.176Z,72.78
2022-10-21T05:50:01.344Z,72.99
2022-10-21T05:51:01.545Z,72.89
2022-10-21T05:52:01.684Z,72.72
2022-10-21T05:53:01.848Z,73.09
2022-10-21T05:54:02.015Z,72.89
2022-10-21T05:55:02.184Z,73.39
2022-10-21T05:56:02.364Z,73.43
2022-10-21T05:57:02.633Z,73.50
2022-10-21T05:58:02.695Z,73.39
2022-10-21T05:59:05.454Z,73.60
2022-10-21T06:00:04.025Z,73.30
2022-10-21T06:01:03.272Z,73.39
2022-10-21T06:02:03.382Z,73.30
2022-10-21T06:03:03.575Z,73.09
2022-10-21T06:04:03.734Z,72.69
2022-10-21T06:05:03.904Z,72.69
2022-10-21T06:06:04.085Z,73.09
2022-10-21T06:07:04.276Z,73.39
2022-10-21T06:08:04.465Z,72.99
2022-10-21T06:09:04.710Z,72.99
2022-10-21T06:10:04.834Z,72.78
2022-10-21T06:11:05.024Z,72.89
2022-10-21T06:12:05.184Z,73.50
2022-10-21T06:13:05.344Z,72.58
2022-10-21T06:14:05.523Z,72.89
2022-10-21T06:15:05.674Z,72.99
2022-10-21T06:17:06.041Z,73.09
2022-10-21T06:18:06.185Z,73.09
2022-10-21T06:19:06.407Z,73.19
2022-10-21T06:20:06.570Z,73.26
2022-10-21T06:21:06.715Z,72.45
2022-10-21T06:22:06.914Z,72.45
2022-10-21T06:23:07.064Z,72.65
2022-10-21T06:24:07.272Z,72.45
2022-10-21T06:25:07.478Z,71.94
2022-10-21T06:26:07.621Z,72.14
2022-10-21T06:27:07.774Z,72.34
2022-10-21T06:28:07.947Z,72.25
2022-10-21T06:29:08.136Z,71.84
2022-10-21T06:30:08.301Z,72.25
2022-10-21T06:31:08.471Z,72.41
2022-10-21T06:32:08.634Z,72.11
2022-10-21T06:33:08.845Z,71.91
2022-10-21T06:34:09.058Z,71.70
2022-10-21T06:35:09.163Z,71.91
2022-10-21T06:36:09.324Z,71.80
2022-10-21T06:37:09.483Z,71.57
2022-10-21T06:38:09.643Z,71.26
2022-10-21T06:39:09.824Z,71.16
2022-10-21T06:40:09.972Z,71.57
2022-10-21T06:41:13.044Z,71.06
2022-10-21T06:42:10.334Z,71.16
2022-10-21T06:43:10.514Z,71.77
2022-10-21T06:44:10.664Z,70.86
2022-10-21T06:45:10.844Z,71.50
2022-10-21T06:46:11.003Z,71.16
2022-10-21T06:47:11.164Z,71.57
2022-10-21T06:48:11.324Z,70.96
2022-10-21T06:49:11.505Z,71.16
2022-10-21T06:50:11.663Z,71.06
2022-10-21T06:51:11.835Z,71.16
2022-10-21T06:52:12.068Z,71.47
2022-10-21T06:53:12.214Z,71.26
2022-10-21T06:54:12.420Z,71.47
2022-10-21T06:55:12.564Z,71.77
2022-10-21T06:56:12.727Z,71.47
2022-10-21T06:57:12.889Z,71.26
2022-10-21T06:58:13.071Z,70.62
2022-10-21T06:59:13.245Z,70.86
2022-10-21T07:00:13.399Z,70.86
2022-10-21T07:01:27.427Z,70.92
2022-10-21T07:02:14.724Z,70.92
2022-10-21T07:03:13.897Z,71.03
2022-10-21T07:04:14.086Z,70.62
2022-10-21T07:05:14.265Z,70.52
2022-10-21T07:06:14.433Z,70.72
2022-10-21T07:07:14.563Z,70.72
2022-10-21T07:08:14.755Z,70.72
2022-10-21T07:09:14.994Z,70.62
2022-10-21T07:10:15.093Z,70.83
2022-10-21T07:11:15.260Z,70.92
2022-10-21T07:12:15.512Z,70.62
2022-10-21T07:13:15.641Z,71.03
2022-10-21T07:14:15.842Z,70.42
2022-10-21T07:15:15.953Z,70.11
2022-10-21T07:16:16.158Z,70.11
2022-10-21T07:17:16.304Z,70.83
2022-10-21T07:18:16.483Z,70.83
2022-10-21T07:19:16.683Z,70.92
2022-10-21T07:20:16.802Z,70.72
2022-10-21T07:21:16.963Z,70.72
2022-10-21T07:22:17.144Z,70.52
2022-10-21T07:23:17.303Z,70.18
2022-10-21T07:24:22.148Z,70.08
2022-10-21T07:25:18.665Z,70.59
2022-10-21T07:26:17.841Z,69.57
2022-10-21T07:27:18.004Z,69.98
2022-10-21T07:28:18.183Z,69.78
2022-10-21T07:29:18.383Z,69.78
2022-10-21T07:30:18.543Z,69.27
2022-10-21T07:31:18.730Z,69.57
2022-10-21T07:32:18.915Z,69.47
2022-10-21T07:33:19.095Z,69.47
2022-10-21T07:34:19.281Z,69.57
2022-10-21T07:35:19.453Z,69.74
2022-10-21T07:36:19.633Z,69.74
2022-10-21T07:37:19.783Z,69.64
2022-10-21T07:38:22.225Z,69.10
2022-10-21T07:39:20.147Z,69.31
2022-10-21T07:40:20.333Z,69.41
2022-10-21T07:41:20.513Z,68.80
2022-10-21T07:42:20.711Z,69.07
2022-10-21T07:43:20.893Z,69.48
2022-10-21T07:44:21.093Z,68.56
2022-10-21T07:45:21.243Z,67.65
2022-10-21T07:46:21.427Z,67.25
2022-10-21T07:47:21.606Z,67.52
2022-10-21T07:48:21.794Z,67.42
2022-10-21T07:49:21.993Z,67.62
2022-10-21T07:50:22.213Z,67.32
2022-10-21T07:51:25.700Z,67.39
2022-10-21T07:52:23.496Z,66.78
2022-10-21T07:53:22.643Z,66.88
2022-10-21T07:54:22.845Z,66.85
2022-10-21T07:55:22.987Z,65.84
2022-10-21T07:56:23.165Z,66.35
2022-10-21T07:57:23.354Z,65.64
2022-10-21T07:58:23.513Z,65.53
2022-10-21T07:59:23.724Z,65.36
2022-10-21T08:00:23.874Z,65.77
2022-10-21T08:01:24.182Z,66.58
2022-10-21T08:02:24.225Z,66.38
2022-10-21T08:03:24.403Z,66.78
2022-10-21T08:04:24.611Z,66.55
2022-10-21T08:05:24.783Z,66.44
2022-10-21T08:06:24.974Z,65.94
2022-10-21T08:07:25.135Z,65.20
2022-10-21T08:08:25.315Z,64.46
2022-10-21T08:09:25.504Z,63.85
2022-10-21T08:10:25.694Z,63.42
2022-10-21T08:11:25.901Z,63.22
2022-10-21T08:12:26.034Z,63.32
2022-10-21T08:13:26.215Z,63.82
2022-10-21T08:14:26.413Z,64.20
2022-10-21T08:15:26.554Z,64.10
2022-10-21T08:16:26.747Z,63.56
2022-10-21T08:17:26.934Z,63.13
2022-10-21T08:18:27.096Z,62.63
2022-10-21T08:19:27.254Z,63.03
2022-10-21T08:20:27.435Z,63.10
2022-10-21T08:21:27.615Z,61.89
2022-10-21T08:22:27.808Z,62.49
2022-10-21T08:23:27.986Z,62.80
2022-10-21T08:24:28.178Z,62.70
2022-10-21T08:25:28.313Z,60.88
2022-10-21T08:26:28.495Z,60.98
2022-10-21T08:27:28.676Z,61.08
2022-10-21T08:28:28.862Z,61.49
2022-10-21T08:29:29.055Z,61.69
2022-10-21T08:30:29.204Z,61.89
2022-10-21T08:31:29.385Z,61.18
2022-10-21T08:32:29.574Z,61.89
2022-10-21T08:33:29.756Z,61.89
2022-10-21T08:34:29.973Z,60.68
2022-10-21T08:35:30.117Z,61.29
2022-10-21T08:36:30.284Z,62.19
2022-10-21T08:37:30.465Z,61.08
2022-10-21T08:38:30.654Z,61.89
2022-10-21T08:39:30.888Z,61.05
2022-10-21T08:40:31.015Z,60.96
2022-10-21T08:41:31.189Z,61.53
2022-10-21T08:42:31.355Z,61.73
2022-10-21T08:43:31.562Z,61.70
2022-10-21T08:44:31.741Z,59.86
2022-10-21T08:45:31.893Z,60.06
2022-10-21T08:46:32.077Z,59.06
2022-10-21T08:47:32.265Z,59.66
2022-10-21T08:48:32.481Z,59.36
2022-10-21T08:49:32.615Z,59.59
2022-10-21T08:50:32.796Z,59.59
2022-10-21T08:51:32.985Z,59.69
2022-10-21T08:52:33.178Z,59.86
2022-10-21T08:53:33.342Z,58.73
2022-10-21T08:54:33.504Z,57.79
2022-10-21T08:55:33.678Z,57.74
2022-10-21T08:56:33.866Z,56.05
2022-10-21T08:57:34.045Z,53.52
2022-10-21T08:58:34.263Z,50.60
2022-10-21T08:59:34.396Z,48.97
2022-10-21T09:00:34.586Z,48.71
2022-10-21T09:01:34.767Z,47.25
2022-10-21T09:02:34.995Z,46.13
2022-10-21T09:03:35.128Z,46.35
2022-10-21T09:04:35.302Z,46.87
2022-10-21T09:05:35.475Z,47.89
2022-10-21T09:06:35.646Z,46.61
2022-10-21T09:07:36.020Z,47.66
2022-10-21T09:08:36.122Z,49.40
2022-10-21T09:09:36.157Z,49.65
2022-10-21T09:10:36.348Z,50.77
2022-10-21T09:11:36.498Z,51.72
2022-10-21T09:12:36.690Z,52.64
2022-10-21T09:13:36.888Z,53.37
2022-10-21T09:14:37.038Z,54.27
2022-10-21T09:15:37.220Z,54.39
2022-10-21T09:16:37.406Z,55.00
2022-10-21T09:17:37.997Z,55.40
2022-10-21T09:18:37.771Z,56.40
2022-10-21T09:19:37.948Z,55.40
2022-10-21T09:20:38.128Z,55.73
2022-10-21T09:21:38.309Z,54.82
2022-10-21T09:22:38.518Z,56.23
2022-10-21T09:23:38.694Z,55.22
2022-10-21T09:24:38.819Z,55.13
2022-10-21T09:25:38.979Z,56.23
2022-10-21T09:26:39.159Z,55.55
2022-10-21T09:27:55.105Z,55.45
2022-10-21T09:28:40.608Z,56.28
2022-10-21T09:29:39.708Z,56.88
2022-10-21T09:30:39.890Z,56.18
2022-10-21T09:31:40.079Z,56.58
2022-10-21T09:32:40.269Z,56.78
2022-10-21T09:33:40.468Z,57.48
2022-10-21T09:34:40.649Z,58.06
2022-10-21T09:35:40.819Z,56.05
2022-10-21T09:36:40.989Z,55.65
2022-10-21T09:37:41.705Z,55.35
2022-10-21T09:38:41.350Z,56.15
2022-10-21T09:39:41.532Z,56.05
2022-10-21T09:40:41.721Z,56.65
2022-10-21T09:41:41.864Z,55.85
2022-10-21T09:42:47.392Z,56.15
2022-10-21T09:43:43.220Z,55.45
2022-10-21T09:44:42.370Z,56.45
2022-10-21T09:45:42.560Z,55.45
2022-10-21T09:46:42.724Z,55.55
2022-10-21T09:47:42.919Z,55.95
2022-10-21T09:49:06.872Z,56.13
2022-10-21T09:50:05.919Z,55.32
2022-10-21T09:50:44.431Z,55.20
2022-10-21T09:51:43.563Z,54.90
2022-10-21T09:52:43.761Z,54.00
2022-10-21T09:53:52.920Z,54.70
2022-10-21T09:54:45.119Z,55.47
2022-10-21T09:55:44.299Z,54.47
2022-10-21T09:56:44.441Z,53.67
2022-10-21T09:57:44.638Z,54.27
2022-10-21T09:58:44.831Z,53.67
2022-10-21T09:59:44.972Z,53.97
2022-10-21T10:00:45.150Z,53.07
2022-10-21T10:01:45.344Z,52.89
2022-10-21T10:02:45.501Z,53.09
2022-10-21T10:03:45.689Z,53.50
2022-10-21T10:04:45.855Z,53.97
2022-10-21T10:05:46.001Z,54.37
2022-10-21T10:06:46.180Z,52.87
2022-10-21T10:07:46.333Z,53.37
2022-10-21T10:08:46.664Z,53.57
2022-10-21T10:09:46.676Z,53.07
2022-10-21T10:10:46.862Z,53.87
2022-10-21T10:11:47.066Z,54.14
2022-10-21T10:12:47.244Z,54.55
2022-10-21T10:13:47.402Z,54.05
2022-10-21T10:14:47.553Z,53.55
2022-10-21T10:15:47.743Z,53.55
2022-10-21T10:16:47.960Z,53.85
2022-10-21T10:17:48.101Z,52.34
2022-10-21T10:18:48.313Z,52.55
2022-10-21T10:19:48.451Z,53.74
2022-10-21T10:20:48.653Z,51.84
2022-10-21T10:21:48.783Z,52.17
2022-10-21T10:22:48.983Z,53.57
2022-10-21T10:23:49.151Z,53.07
2022-10-21T10:24:49.326Z,53.37
2022-10-21T10:25:49.523Z,53.77
2022-10-21T10:26:49.669Z,52.47
2022-10-21T10:27:49.847Z,52.89
2022-10-21T10:28:50.032Z,53.59
2022-10-21T10:29:50.197Z,53.00
2022-10-21T10:30:50.467Z,53.92
2022-10-21T10:31:50.994Z,54.62
2022-10-21T10:32:50.705Z,54.50
2022-10-21T10:33:52.621Z,53.89
2022-10-21T10:34:51.064Z,53.80
2022-10-21T10:35:51.245Z,53.50
2022-10-21T10:36:51.468Z,53.39
2022-10-21T10:37:51.615Z,53.72
2022-10-21T10:38:51.815Z,54.43
2022-10-21T10:39:51.969Z,55.20
2022-10-21T10:40:55.171Z,54.60
2022-10-21T10:41:53.336Z,54.39
2022-10-21T10:42:52.526Z,54.70
2022-10-21T10:43:52.718Z,54.67
2022-10-21T10:44:52.885Z,54.57
2022-10-21T10:45:53.037Z,53.67
2022-10-21T10:46:53.207Z,53.27
2022-10-21T10:47:53.406Z,53.87
2022-10-21T10:48:53.606Z,52.87
2022-10-21T10:49:53.747Z,53.47
2022-10-21T10:50:53.923Z,53.27
2022-10-21T10:51:54.109Z,53.47
2022-10-21T10:52:54.296Z,52.67
2022-10-21T10:53:54.496Z,53.30
2022-10-21T10:54:54.648Z,53.97
2022-10-21T10:55:54.825Z,54.47
2022-10-21T10:56:54.956Z,54.57
2022-10-21T10:58:12.697Z,54.55
2022-10-21T10:58:56.317Z,54.85
2022-10-21T10:59:55.485Z,54.62
2022-10-21T11:00:55.731Z,54.42
2022-10-21T11:01:55.849Z,53.32
2022-10-21T11:02:56.027Z,53.52
2022-10-21T11:03:56.237Z,52.82
2022-10-21T11:04:56.414Z,52.64
2022-10-21T11:05:56.598Z,53.85
2022-10-21T11:06:56.788Z,54.47
2022-10-21T11:07:56.982Z,54.77
2022-10-21T11:08:57.204Z,54.07
2022-10-21T11:09:57.317Z,54.97
2022-10-21T11:10:57.507Z,53.97
2022-10-21T11:11:57.700Z,54.80
2022-10-21T11:12:57.916Z,54.80
2022-10-21T11:13:58.048Z,54.60
2022-10-21T11:14:58.196Z,54.10
2022-10-21T11:15:58.379Z,54.20
2022-10-21T11:17:00.897Z,54.90
2022-10-21T11:18:07.416Z,54.80
2022-10-21T11:18:59.898Z,54.70
2022-10-21T11:19:59.078Z,55.47
2022-10-21T11:20:59.219Z,55.17
2022-10-21T11:22:03.767Z,54.87
2022-10-21T11:23:00.664Z,54.74
2022-10-21T11:23:59.779Z,53.85
2022-10-21T11:24:59.950Z,53.85
2022-10-21T11:26:00.220Z,53.55
2022-10-21T11:27:00.293Z,53.94
2022-10-21T11:28:00.504Z,53.64
2022-10-21T11:29:05.419Z,53.44
2022-10-21T11:30:01.824Z,53.14
2022-10-21T11:31:01.010Z,54.14
2022-10-21T11:32:12.339Z,54.14
2022-10-21T11:33:02.361Z,54.74
2022-10-21T11:34:01.575Z,54.44
2022-10-21T11:35:01.721Z,53.24
2022-10-21T11:36:01.890Z,54.05
2022-10-21T11:37:02.071Z,53.94
2022-10-21T11:38:02.261Z,53.94
2022-10-21T11:39:02.458Z,53.77
2022-10-21T11:40:02.652Z,53.57
2022-10-21T11:41:02.803Z,53.77
2022-10-21T11:42:02.941Z,54.27
2022-10-21T11:43:03.121Z,54.05
2022-10-21T11:44:03.365Z,53.64
2022-10-21T11:45:03.471Z,53.55
2022-10-21T11:46:03.651Z,52.64
2022-10-21T11:47:03.831Z,53.82
2022-10-21T11:48:04.083Z,53.82
2022-10-21T11:49:04.211Z,53.72
2022-10-21T11:50:04.398Z,53.69
2022-10-21T11:51:06.141Z,53.99
2022-10-21T11:52:04.695Z,53.77
2022-10-21T11:53:04.873Z,52.77
2022-10-21T11:54:05.089Z,53.37
2022-10-21T11:55:10.307Z,51.67
2022-10-21T11:56:06.401Z,52.17
2022-10-21T11:57:05.542Z,51.57
2022-10-21T11:58:05.746Z,52.47
2022-10-21T11:59:05.933Z,53.27
2022-10-21T12:00:06.082Z,52.47
2022-10-21T12:01:06.310Z,52.67
2022-10-21T12:02:06.527Z,52.87
2022-10-21T12:03:06.633Z,53.07
2022-10-21T12:04:06.845Z,53.37
2022-10-21T12:05:06.983Z,52.89
2022-10-21T12:06:07.175Z,52.09
2022-10-21T12:07:11.048Z,52.62
2022-10-21T12:08:07.513Z,52.82
2022-10-21T12:09:07.704Z,53.05
2022-10-21T12:10:07.939Z,53.74
2022-10-21T12:11:08.014Z,53.85
2022-10-21T12:12:08.203Z,53.77
2022-10-21T12:13:08.373Z,54.07
2022-10-21T12:14:08.573Z,54.47
2022-10-21T12:15:08.773Z,53.77
2022-10-21T12:16:08.962Z,54.37
2022-10-21T12:17:09.113Z,54.27
2022-10-21T12:18:09.255Z,54.57
2022-10-21T12:19:09.470Z,54.17
2022-10-21T12:20:09.614Z,54.27
2022-10-21T12:21:09.764Z,54.07
2022-10-21T12:22:09.945Z,53.87
2022-10-21T12:23:10.125Z,54.60
2022-10-21T12:24:10.326Z,54.10
2022-10-21T12:25:10.495Z,53.89
2022-10-21T12:26:10.675Z,54.30
2022-10-21T12:27:10.874Z,54.52
2022-10-21T12:28:11.016Z,54.72
2022-10-21T12:29:11.215Z,54.93
2022-10-21T12:30:11.403Z,54.43
2022-10-21T12:31:11.566Z,54.93
2022-10-21T12:32:11.746Z,54.82
2022-10-21T12:33:11.936Z,55.00
2022-10-21T12:34:12.135Z,55.10
2022-10-21T12:35:12.266Z,54.39
2022-10-21T12:36:12.450Z,54.30
2022-10-21T12:37:12.625Z,54.70
2022-10-21T12:38:12.840Z,54.90
2022-10-21T12:39:12.984Z,55.30
2022-10-21T12:40:13.127Z,55.00
2022-10-21T12:41:13.307Z,54.50
2022-10-21T12:42:13.496Z,55.10
2022-10-21T12:43:13.675Z,55.30
2022-10-21T12:44:13.898Z,54.90
2022-10-21T12:45:14.028Z,55.17
2022-10-21T12:46:14.512Z,54.67
2022-10-21T12:47:14.403Z,55.27
2022-10-21T12:48:14.528Z,55.37
2022-10-21T12:49:14.719Z,54.87
2022-10-21T12:50:14.908Z,55.37
2022-10-21T12:51:15.067Z,54.87
2022-10-21T12:52:15.268Z,54.94
2022-10-21T12:53:15.406Z,54.55
2022-10-21T12:54:15.608Z,53.85
2022-10-21T12:55:15.779Z,53.94